METAR Data
IDs: Format: Raw Decoded Include TAF

Data at: 1809 UTC 03 Jul 2020

KEYW 031753Z 19006KT 10SM FEW023 32/24 A3000 RMK AO2 SLP158 T03170239 10328 20300 58000